Green Cove Springs, Florida
Current Conditions -  °F | °C
As of 2:53 AM on Monday 22 Dec 2014 (Local Time) from KNIP Reporting Station
Light Rain Light Rain  
Wind Chill: 60°   Ceiling: 300
Heat Index: 60°   Visibility: 5mi
Dew Point: 57°   Wind: 3mph
Humidity: 90%   Direction: 70°ENE
Pressure: 30.02"   Gusts: NA
Location:  29.99°N, 81.68°W
Report Text: KNIP 220753Z 07003KT 5SM -RA BR OVC003 16/14 A3002 RMK AO2 PRESFR SLP160 T2 SET P0007 T01560139 $
Loading
Personal Weather Stations






























Interactive Weather Map New forecast layout! Learn more

10-Day Weather Forecast

Advertisements
Track Severe Weather on mobile